首页
METAR-TAF:

METAR-TAF

机场 :

Quincy Regional Airport (Baldwin Field)

昆西, 伊利诺伊州, 美国

纬度: 39-56-33N, 经度: 091-11-40W, 海拔: 234米

当前天气观测

该预报发布于44分钟前的23:54 UTC
风速4节,风向东南
温度 -1°C
湿度 69%
气压 1018 hPa
能見度: 16.1公里
天空无云

METAR: KUIN 132354Z AUTO 13004KT 10SM CLR M01/M06 A3005 RMK AO2 SLP186 T10111061 10000 21022 53004

时间: 18:38 (00:38 UTC)

预报

该预报发布于59分钟前的23:39 UTC
预报有效从14日的 00点(UTC)到 14日的 24点(UTC)
风速6节,风向
能見度: 10公里
散云层高于5000英尺
阴天层高于25000英尺
从 14日的 0200点(UTC)
风速6节,风向南转西南
能見度: 10公里
散云层高于25000英尺
从 14日的 0700点(UTC)
风速7节,风向西转西北
能見度: 10公里
多云层高于4500英尺
从 14日的 1200点(UTC)
风速8节,风向西北
能見度: 10公里
多云层高于2500英尺
从 14日的 2000点(UTC)
风速9节,风向西北
能見度: 10公里
散云层高于3500英尺

TAF: KUIN 132339Z 1400/1424 18006KT P6SM SCT050 OVC250 FM140200 20006KT P6SM SCT250 FM140700 30007KT P6SM BKN045 FM141200 32008KT P6SM BKN025 FM142000 31009KT P6SM SCT035

超过4000个机场的气象观测和天气预报(METAR&TAF报告)。

可查询的气象台以黄色和红色小点在地图上表示。

将鼠标移到小点上方,可查看气象台名称。

然后点击查看天气观测和预报。

如需切换地图:点击带黑十字的绿色按钮放大地图;点击带横线的绿色按钮缩小地图;或者点击绿色箭头查看邻近地区的地图。


METAR-TAF: